sensor_id;sensor_type;location;lat;lon;timestamp;P1;durP1;ratioP1;P2;durP2;ratioP2
23270;SDS011;11804;51.118;17.058;2023-05-16T00:00:31;9.13;;;6.60;;
23270;SDS011;11804;51.118;17.058;2023-05-16T00:03:00;9.87;;;6.77;;
23270;SDS011;11804;51.118;17.058;2023-05-16T00:05:29;11.27;;;6.73;;
23270;SDS011;11804;51.118;17.058;2023-05-16T00:07:58;9.10;;;6.33;;
23270;SDS011;11804;51.118;17.058;2023-05-16T00:10:26;9.80;;;7.23;;
23270;SDS011;11804;51.118;17.058;2023-05-16T00:15:55;10.90;;;6.93;;
23270;SDS011;11804;51.118;17.058;2023-05-16T00:18:24;10.17;;;6.70;;
23270;SDS011;11804;51.118;17.058;2023-05-16T00:20:51;11.37;;;6.77;;
23270;SDS011;11804;51.118;17.058;2023-05-16T00:23:20;10.93;;;7.00;;
23270;SDS011;11804;51.118;17.058;2023-05-16T00:25:48;11.20;;;7.40;;
23270;SDS011;11804;51.118;17.058;2023-05-16T00:28:15;10.37;;;6.97;;
23270;SDS011;11804;51.118;17.058;2023-05-16T00:30:43;9.40;;;6.53;;
23270;SDS011;11804;51.118;17.058;2023-05-16T00:33:10;11.17;;;6.87;;
23270;SDS011;11804;51.118;17.058;2023-05-16T00:35:38;10.20;;;6.87;;
23270;SDS011;11804;51.118;17.058;2023-05-16T00:38:06;12.27;;;7.63;;
23270;SDS011;11804;51.118;17.058;2023-05-16T00:40:33;10.27;;;7.40;;
23270;SDS011;11804;51.118;17.058;2023-05-16T00:43:01;10.83;;;7.17;;
23270;SDS011;11804;51.118;17.058;2023-05-16T00:45:29;9.03;;;6.90;;
23270;SDS011;11804;51.118;17.058;2023-05-16T00:47:56;10.60;;;7.53;;
23270;SDS011;11804;51.118;17.058;2023-05-16T00:50:24;10.17;;;7.03;;
23270;SDS011;11804;51.118;17.058;2023-05-16T00:52:52;10.27;;;7.03;;
23270;SDS011;11804;51.118;17.058;2023-05-16T00:55:20;12.83;;;7.30;;
23270;SDS011;11804;51.118;17.058;2023-05-16T00:57:48;10.47;;;7.33;;
23270;SDS011;11804;51.118;17.058;2023-05-16T01:00:16;10.67;;;6.97;;
23270;SDS011;11804;51.118;17.058;2023-05-16T01:02:44;9.50;;;6.80;;
23270;SDS011;11804;51.118;17.058;2023-05-16T01:05:13;9.27;;;6.60;;
23270;SDS011;11804;51.118;17.058;2023-05-16T01:07:40;9.63;;;6.87;;
23270;SDS011;11804;51.118;17.058;2023-05-16T01:10:08;10.57;;;6.67;;
23270;SDS011;11804;51.118;17.058;2023-05-16T01:15:19;11.70;;;7.13;;
23270;SDS011;11804;51.118;17.058;2023-05-16T01:23:26;9.03;;;5.90;;
23270;SDS011;11804;51.118;17.058;2023-05-16T01:26:18;10.23;;;6.80;;
23270;SDS011;11804;51.118;17.058;2023-05-16T01:28:51;8.90;;;6.60;;
23270;SDS011;11804;51.118;17.058;2023-05-16T01:31:20;10.13;;;6.67;;
23270;SDS011;11804;51.118;17.058;2023-05-16T01:33:51;9.23;;;6.53;;
23270;SDS011;11804;51.118;17.058;2023-05-16T01:36:23;11.20;;;7.27;;
23270;SDS011;11804;51.118;17.058;2023-05-16T01:39:01;11.20;;;6.77;;
23270;SDS011;11804;51.118;17.058;2023-05-16T01:41:46;10.20;;;6.97;;
23270;SDS011;11804;51.118;17.058;2023-05-16T01:44:36;11.87;;;7.67;;
23270;SDS011;11804;51.118;17.058;2023-05-16T01:47:06;10.87;;;7.13;;
23270;SDS011;11804;51.118;17.058;2023-05-16T01:49:38;11.27;;;6.70;;
23270;SDS011;11804;51.118;17.058;2023-05-16T01:52:17;8.57;;;6.67;;
23270;SDS011;11804;51.118;17.058;2023-05-16T01:54:46;10.17;;;7.00;;
23270;SDS011;11804;51.118;17.058;2023-05-16T01:57:16;9.60;;;6.80;;
23270;SDS011;11804;51.118;17.058;2023-05-16T01:59:44;10.50;;;6.87;;
23270;SDS011;11804;51.118;17.058;2023-05-16T02:02:12;12.93;;;7.70;;
23270;SDS011;11804;51.118;17.058;2023-05-16T02:04:41;10.27;;;6.73;;
23270;SDS011;11804;51.118;17.058;2023-05-16T02:07:11;10.10;;;7.13;;
23270;SDS011;11804;51.118;17.058;2023-05-16T02:09:40;11.10;;;6.70;;
23270;SDS011;11804;51.118;17.058;2023-05-16T02:12:09;10.60;;;6.73;;
23270;SDS011;11804;51.118;17.058;2023-05-16T02:14:37;11.53;;;7.70;;
23270;SDS011;11804;51.118;17.058;2023-05-16T02:17:04;10.50;;;6.77;;
23270;SDS011;11804;51.118;17.058;2023-05-16T02:19:32;9.63;;;7.07;;
23270;SDS011;11804;51.118;17.058;2023-05-16T02:21:59;11.37;;;7.00;;
23270;SDS011;11804;51.118;17.058;2023-05-16T02:24:27;11.57;;;6.90;;
23270;SDS011;11804;51.118;17.058;2023-05-16T02:26:55;10.40;;;6.83;;
23270;SDS011;11804;51.118;17.058;2023-05-16T02:29:22;10.87;;;6.50;;
23270;SDS011;11804;51.118;17.058;2023-05-16T02:31:50;10.83;;;6.93;;
23270;SDS011;11804;51.118;17.058;2023-05-16T02:34:18;9.27;;;6.03;;
23270;SDS011;11804;51.118;17.058;2023-05-16T02:36:46;9.00;;;6.17;;
23270;SDS011;11804;51.118;17.058;2023-05-16T02:39:13;10.97;;;6.57;;
23270;SDS011;11804;51.118;17.058;2023-05-16T02:41:42;8.50;;;6.23;;
23270;SDS011;11804;51.118;17.058;2023-05-16T02:44:11;8.17;;;6.00;;
23270;SDS011;11804;51.118;17.058;2023-05-16T02:46:39;9.03;;;6.27;;
23270;SDS011;11804;51.118;17.058;2023-05-16T02:49:07;10.37;;;6.27;;
23270;SDS011;11804;51.118;17.058;2023-05-16T02:51:34;8.80;;;6.13;;
23270;SDS011;11804;51.118;17.058;2023-05-16T02:54:02;9.23;;;6.37;;
23270;SDS011;11804;51.118;17.058;2023-05-16T02:56:30;10.53;;;6.77;;
23270;SDS011;11804;51.118;17.058;2023-05-16T02:58:58;9.23;;;6.53;;
23270;SDS011;11804;51.118;17.058;2023-05-16T03:01:26;9.30;;;6.30;;
23270;SDS011;11804;51.118;17.058;2023-05-16T03:03:54;8.53;;;5.73;;
23270;SDS011;11804;51.118;17.058;2023-05-16T03:06:22;8.40;;;5.90;;
23270;SDS011;11804;51.118;17.058;2023-05-16T03:08:49;7.43;;;5.83;;
23270;SDS011;11804;51.118;17.058;2023-05-16T03:11:17;9.70;;;6.73;;
23270;SDS011;11804;51.118;17.058;2023-05-16T03:13:51;10.60;;;7.50;;
23270;SDS011;11804;51.118;17.058;2023-05-16T03:16:18;8.60;;;6.30;;
23270;SDS011;11804;51.118;17.058;2023-05-16T03:18:46;8.47;;;6.10;;
23270;SDS011;11804;51.118;17.058;2023-05-16T03:21:14;8.23;;;6.20;;
23270;SDS011;11804;51.118;17.058;2023-05-16T03:23:42;8.70;;;6.30;;
23270;SDS011;11804;51.118;17.058;2023-05-16T03:26:10;7.77;;;5.57;;
23270;SDS011;11804;51.118;17.058;2023-05-16T03:28:37;8.60;;;5.77;;
23270;SDS011;11804;51.118;17.058;2023-05-16T03:31:05;9.33;;;6.00;;
23270;SDS011;11804;51.118;17.058;2023-05-16T03:33:32;7.83;;;5.67;;
23270;SDS011;11804;51.118;17.058;2023-05-16T03:36:00;8.07;;;5.63;;
23270;SDS011;11804;51.118;17.058;2023-05-16T03:38:28;12.80;;;6.67;;
23270;SDS011;11804;51.118;17.058;2023-05-16T03:40:56;8.20;;;6.40;;
23270;SDS011;11804;51.118;17.058;2023-05-16T03:43:23;6.77;;;4.93;;
23270;SDS011;11804;51.118;17.058;2023-05-16T03:45:51;7.93;;;5.20;;
23270;SDS011;11804;51.118;17.058;2023-05-16T03:48:19;9.23;;;5.70;;
23270;SDS011;11804;51.118;17.058;2023-05-16T03:50:46;8.13;;;5.43;;
23270;SDS011;11804;51.118;17.058;2023-05-16T03:53:16;7.20;;;5.23;;
23270;SDS011;11804;51.118;17.058;2023-05-16T03:55:49;9.03;;;5.33;;
23270;SDS011;11804;51.118;17.058;2023-05-16T03:58:13;7.57;;;5.30;;
23270;SDS011;11804;51.118;17.058;2023-05-16T04:00:42;7.93;;;5.13;;
23270;SDS011;11804;51.118;17.058;2023-05-16T04:03:11;6.50;;;4.80;;
23270;SDS011;11804;51.118;17.058;2023-05-16T04:05:40;7.47;;;5.47;;
23270;SDS011;11804;51.118;17.058;2023-05-16T04:08:08;8.33;;;5.83;;
23270;SDS011;11804;51.118;17.058;2023-05-16T04:10:36;10.27;;;7.27;;
23270;SDS011;11804;51.118;17.058;2023-05-16T04:13:03;8.07;;;5.57;;
23270;SDS011;11804;51.118;17.058;2023-05-16T04:15:31;6.63;;;5.03;;
23270;SDS011;11804;51.118;17.058;2023-05-16T04:17:58;8.47;;;5.40;;
23270;SDS011;11804;51.118;17.058;2023-05-16T04:20:26;8.27;;;5.70;;
23270;SDS011;11804;51.118;17.058;2023-05-16T04:22:53;9.23;;;5.17;;
23270;SDS011;11804;51.118;17.058;2023-05-16T04:25:21;7.43;;;5.37;;
23270;SDS011;11804;51.118;17.058;2023-05-16T04:27:49;7.63;;;5.30;;
23270;SDS011;11804;51.118;17.058;2023-05-16T04:30:18;6.23;;;5.13;;
23270;SDS011;11804;51.118;17.058;2023-05-16T04:32:45;5.55;;;4.35;;
23270;SDS011;11804;51.118;17.058;2023-05-16T04:35:13;11.03;;;5.03;;
23270;SDS011;11804;51.118;17.058;2023-05-16T04:37:41;6.72;;;4.70;;
23270;SDS011;11804;51.118;17.058;2023-05-16T04:40:09;7.10;;;5.33;;
23270;SDS011;11804;51.118;17.058;2023-05-16T04:42:37;6.05;;;4.58;;
23270;SDS011;11804;51.118;17.058;2023-05-16T04:45:06;6.53;;;5.05;;
23270;SDS011;11804;51.118;17.058;2023-05-16T04:47:35;6.28;;;4.60;;
23270;SDS011;11804;51.118;17.058;2023-05-16T04:50:03;7.28;;;5.15;;
23270;SDS011;11804;51.118;17.058;2023-05-16T04:52:33;6.45;;;5.08;;
23270;SDS011;11804;51.118;17.058;2023-05-16T04:55:01;5.65;;;4.87;;
23270;SDS011;11804;51.118;17.058;2023-05-16T04:57:29;6.53;;;4.70;;
23270;SDS011;11804;51.118;17.058;2023-05-16T04:59:56;6.37;;;4.42;;
23270;SDS011;11804;51.118;17.058;2023-05-16T05:02:24;5.83;;;4.55;;
23270;SDS011;11804;51.118;17.058;2023-05-16T05:04:52;7.03;;;4.83;;
23270;SDS011;11804;51.118;17.058;2023-05-16T05:07:19;6.20;;;4.97;;
23270;SDS011;11804;51.118;17.058;2023-05-16T05:09:48;6.15;;;4.42;;
23270;SDS011;11804;51.118;17.058;2023-05-16T05:12:18;5.35;;;4.45;;
23270;SDS011;11804;51.118;17.058;2023-05-16T05:14:46;6.80;;;4.90;;
23270;SDS011;11804;51.118;17.058;2023-05-16T05:17:14;6.05;;;4.75;;
23270;SDS011;11804;51.118;17.058;2023-05-16T05:19:43;7.30;;;5.22;;
23270;SDS011;11804;51.118;17.058;2023-05-16T05:22:10;8.85;;;5.42;;
23270;SDS011;11804;51.118;17.058;2023-05-16T05:24:38;6.45;;;4.60;;
23270;SDS011;11804;51.118;17.058;2023-05-16T05:27:06;8.38;;;5.33;;
23270;SDS011;11804;51.118;17.058;2023-05-16T05:29:33;8.38;;;4.47;;
23270;SDS011;11804;51.118;17.058;2023-05-16T05:32:01;6.47;;;4.83;;
23270;SDS011;11804;51.118;17.058;2023-05-16T05:34:29;8.20;;;4.92;;
23270;SDS011;11804;51.118;17.058;2023-05-16T05:36:56;5.60;;;4.58;;
23270;SDS011;11804;51.118;17.058;2023-05-16T05:39:24;16.17;;;8.35;;
23270;SDS011;11804;51.118;17.058;2023-05-16T05:41:52;44.30;;;14.85;;
23270;SDS011;11804;51.118;17.058;2023-05-16T05:44:19;21.05;;;10.15;;
23270;SDS011;11804;51.118;17.058;2023-05-16T05:46:47;19.42;;;9.18;;
23270;SDS011;11804;51.118;17.058;2023-05-16T05:49:15;7.17;;;5.25;;
23270;SDS011;11804;51.118;17.058;2023-05-16T05:51:42;6.25;;;5.22;;
23270;SDS011;11804;51.118;17.058;2023-05-16T05:54:10;8.40;;;5.00;;
23270;SDS011;11804;51.118;17.058;2023-05-16T05:56:38;6.70;;;5.20;;
23270;SDS011;11804;51.118;17.058;2023-05-16T05:59:05;6.15;;;5.00;;
23270;SDS011;11804;51.118;17.058;2023-05-16T06:01:33;8.33;;;4.30;;
23270;SDS011;11804;51.118;17.058;2023-05-16T06:04:01;6.08;;;4.60;;
23270;SDS011;11804;51.118;17.058;2023-05-16T06:06:29;5.80;;;4.83;;
23270;SDS011;11804;51.118;17.058;2023-05-16T06:08:56;7.65;;;5.20;;
23270;SDS011;11804;51.118;17.058;2023-05-16T06:11:24;9.08;;;5.42;;
23270;SDS011;11804;51.118;17.058;2023-05-16T06:13:52;7.30;;;5.83;;
23270;SDS011;11804;51.118;17.058;2023-05-16T06:16:23;5.35;;;4.72;;
23270;SDS011;11804;51.118;17.058;2023-05-16T06:18:50;11.43;;;6.33;;
23270;SDS011;11804;51.118;17.058;2023-05-16T06:21:18;5.55;;;4.47;;
23270;SDS011;11804;51.118;17.058;2023-05-16T06:23:45;6.25;;;4.35;;
23270;SDS011;11804;51.118;17.058;2023-05-16T06:26:13;5.80;;;4.45;;
23270;SDS011;11804;51.118;17.058;2023-05-16T06:28:40;4.95;;;4.45;;
23270;SDS011;11804;51.118;17.058;2023-05-16T06:31:08;6.60;;;5.00;;
23270;SDS011;11804;51.118;17.058;2023-05-16T06:33:36;6.00;;;4.83;;
23270;SDS011;11804;51.118;17.058;2023-05-16T06:36:05;8.10;;;5.42;;
23270;SDS011;11804;51.118;17.058;2023-05-16T06:38:33;6.25;;;4.83;;
23270;SDS011;11804;51.118;17.058;2023-05-16T06:41:01;4.78;;;4.28;;
23270;SDS011;11804;51.118;17.058;2023-05-16T06:43:28;7.08;;;5.53;;
23270;SDS011;11804;51.118;17.058;2023-05-16T06:45:56;7.30;;;5.35;;
23270;SDS011;11804;51.118;17.058;2023-05-16T06:48:23;6.22;;;5.00;;
23270;SDS011;11804;51.118;17.058;2023-05-16T06:50:51;7.75;;;5.60;;
23270;SDS011;11804;51.118;17.058;2023-05-16T06:53:18;8.95;;;5.75;;
23270;SDS011;11804;51.118;17.058;2023-05-16T06:55:46;7.47;;;4.97;;
23270;SDS011;11804;51.118;17.058;2023-05-16T06:58:14;10.70;;;5.75;;
23270;SDS011;11804;51.118;17.058;2023-05-16T07:00:42;7.10;;;5.97;;
23270;SDS011;11804;51.118;17.058;2023-05-16T07:03:09;6.45;;;5.58;;
23270;SDS011;11804;51.118;17.058;2023-05-16T07:05:39;8.40;;;5.85;;
23270;SDS011;11804;51.118;17.058;2023-05-16T07:08:12;10.72;;;5.87;;
23270;SDS011;11804;51.118;17.058;2023-05-16T07:10:37;7.25;;;5.42;;
23270;SDS011;11804;51.118;17.058;2023-05-16T07:13:05;7.35;;;5.10;;
23270;SDS011;11804;51.118;17.058;2023-05-16T07:15:33;5.30;;;4.80;;
23270;SDS011;11804;51.118;17.058;2023-05-16T07:18:00;6.87;;;5.55;;
23270;SDS011;11804;51.118;17.058;2023-05-16T07:20:28;6.42;;;5.20;;
23270;SDS011;11804;51.118;17.058;2023-05-16T07:22:55;7.25;;;5.30;;
23270;SDS011;11804;51.118;17.058;2023-05-16T07:25:24;6.90;;;5.85;;
23270;SDS011;11804;51.118;17.058;2023-05-16T07:27:52;8.05;;;5.30;;
23270;SDS011;11804;51.118;17.058;2023-05-16T07:30:20;6.85;;;5.45;;
23270;SDS011;11804;51.118;17.058;2023-05-16T07:32:48;8.00;;;5.42;;
23270;SDS011;11804;51.118;17.058;2023-05-16T07:35:16;7.20;;;5.40;;
23270;SDS011;11804;51.118;17.058;2023-05-16T07:37:43;6.53;;;5.20;;
23270;SDS011;11804;51.118;17.058;2023-05-16T07:40:11;10.03;;;5.50;;
23270;SDS011;11804;51.118;17.058;2023-05-16T07:42:39;7.53;;;5.67;;
23270;SDS011;11804;51.118;17.058;2023-05-16T07:45:07;8.28;;;5.30;;
23270;SDS011;11804;51.118;17.058;2023-05-16T07:47:35;6.00;;;5.20;;
23270;SDS011;11804;51.118;17.058;2023-05-16T07:50:03;10.32;;;5.45;;
23270;SDS011;11804;51.118;17.058;2023-05-16T07:52:31;5.97;;;5.33;;
23270;SDS011;11804;51.118;17.058;2023-05-16T07:54:58;6.22;;;5.62;;
23270;SDS011;11804;51.118;17.058;2023-05-16T07:57:26;6.92;;;5.55;;
23270;SDS011;11804;51.118;17.058;2023-05-16T07:59:54;6.78;;;6.08;;
23270;SDS011;11804;51.118;17.058;2023-05-16T08:02:22;9.43;;;6.37;;
23270;SDS011;11804;51.118;17.058;2023-05-16T08:04:51;7.65;;;6.17;;
23270;SDS011;11804;51.118;17.058;2023-05-16T08:07:19;7.15;;;6.15;;
23270;SDS011;11804;51.118;17.058;2023-05-16T08:09:47;8.25;;;6.37;;
23270;SDS011;11804;51.118;17.058;2023-05-16T08:12:14;8.53;;;6.80;;
23270;SDS011;11804;51.118;17.058;2023-05-16T08:14:42;8.45;;;5.87;;
23270;SDS011;11804;51.118;17.058;2023-05-16T08:17:09;8.35;;;5.65;;
23270;SDS011;11804;51.118;17.058;2023-05-16T08:19:37;7.97;;;5.87;;
23270;SDS011;11804;51.118;17.058;2023-05-16T08:22:05;7.35;;;5.35;;
23270;SDS011;11804;51.118;17.058;2023-05-16T08:24:34;5.90;;;5.22;;
23270;SDS011;11804;51.118;17.058;2023-05-16T08:27:04;7.10;;;5.78;;
23270;SDS011;11804;51.118;17.058;2023-05-16T08:29:31;6.10;;;5.45;;
23270;SDS011;11804;51.118;17.058;2023-05-16T08:31:59;8.90;;;5.67;;
23270;SDS011;11804;51.118;17.058;2023-05-16T08:34:29;8.10;;;5.75;;
23270;SDS011;11804;51.118;17.058;2023-05-16T08:36:57;6.25;;;5.50;;
23270;SDS011;11804;51.118;17.058;2023-05-16T08:39:26;7.12;;;5.87;;
23270;SDS011;11804;51.118;17.058;2023-05-16T08:41:55;6.78;;;5.78;;
23270;SDS011;11804;51.118;17.058;2023-05-16T08:44:23;6.83;;;5.75;;
23270;SDS011;11804;51.118;17.058;2023-05-16T08:46:52;8.90;;;6.10;;
23270;SDS011;11804;51.118;17.058;2023-05-16T08:49:20;5.90;;;5.30;;
23270;SDS011;11804;51.118;17.058;2023-05-16T08:51:50;6.45;;;5.22;;
23270;SDS011;11804;51.118;17.058;2023-05-16T08:54:19;6.25;;;4.80;;
23270;SDS011;11804;51.118;17.058;2023-05-16T08:56:47;7.05;;;5.10;;
23270;SDS011;11804;51.118;17.058;2023-05-16T08:59:16;8.65;;;5.28;;
23270;SDS011;11804;51.118;17.058;2023-05-16T09:01:44;7.03;;;5.60;;
23270;SDS011;11804;51.118;17.058;2023-05-16T09:04:12;7.83;;;5.83;;
23270;SDS011;11804;51.118;17.058;2023-05-16T09:06:41;7.85;;;6.12;;
23270;SDS011;11804;51.118;17.058;2023-05-16T09:09:08;6.60;;;5.90;;
23270;SDS011;11804;51.118;17.058;2023-05-16T09:11:37;6.08;;;5.33;;
23270;SDS011;11804;51.118;17.058;2023-05-16T09:14:05;6.90;;;5.08;;
23270;SDS011;11804;51.118;17.058;2023-05-16T09:16:33;6.25;;;5.12;;
23270;SDS011;11804;51.118;17.058;2023-05-16T09:19:01;6.10;;;4.90;;
23270;SDS011;11804;51.118;17.058;2023-05-16T09:21:30;5.37;;;4.25;;
23270;SDS011;11804;51.118;17.058;2023-05-16T09:24:06;6.25;;;4.90;;
23270;SDS011;11804;51.118;17.058;2023-05-16T09:26:37;5.97;;;5.28;;
23270;SDS011;11804;51.118;17.058;2023-05-16T09:29:10;6.75;;;5.05;;
23270;SDS011;11804;51.118;17.058;2023-05-16T09:31:38;5.35;;;4.83;;
23270;SDS011;11804;51.118;17.058;2023-05-16T09:34:06;8.08;;;5.95;;
23270;SDS011;11804;51.118;17.058;2023-05-16T09:36:37;6.03;;;5.33;;
23270;SDS011;11804;51.118;17.058;2023-05-16T09:39:05;5.75;;;4.70;;
23270;SDS011;11804;51.118;17.058;2023-05-16T09:41:33;6.10;;;4.87;;
23270;SDS011;11804;51.118;17.058;2023-05-16T09:44:04;5.37;;;4.87;;
23270;SDS011;11804;51.118;17.058;2023-05-16T09:46:35;4.87;;;4.30;;
23270;SDS011;11804;51.118;17.058;2023-05-16T09:49:04;5.03;;;4.53;;
23270;SDS011;11804;51.118;17.058;2023-05-16T09:51:31;4.78;;;3.85;;
23270;SDS011;11804;51.118;17.058;2023-05-16T09:53:59;5.97;;;4.55;;
23270;SDS011;11804;51.118;17.058;2023-05-16T09:56:27;4.85;;;3.62;;
23270;SDS011;11804;51.118;17.058;2023-05-16T09:58:55;4.37;;;3.90;;
23270;SDS011;11804;51.118;17.058;2023-05-16T10:01:22;4.17;;;3.77;;
23270;SDS011;11804;51.118;17.058;2023-05-16T10:03:50;6.05;;;5.00;;
23270;SDS011;11804;51.118;17.058;2023-05-16T10:06:18;6.95;;;5.78;;
23270;SDS011;11804;51.118;17.058;2023-05-16T10:08:47;6.70;;;5.17;;
23270;SDS011;11804;51.118;17.058;2023-05-16T10:11:16;8.00;;;5.62;;
23270;SDS011;11804;51.118;17.058;2023-05-16T10:13:45;7.78;;;5.65;;
23270;SDS011;11804;51.118;17.058;2023-05-16T10:16:15;6.00;;;5.30;;
23270;SDS011;11804;51.118;17.058;2023-05-16T10:18:44;5.87;;;4.78;;
23270;SDS011;11804;51.118;17.058;2023-05-16T10:21:15;5.20;;;4.30;;
23270;SDS011;11804;51.118;17.058;2023-05-16T10:23:46;6.60;;;4.22;;
23270;SDS011;11804;51.118;17.058;2023-05-16T10:26:16;5.15;;;4.60;;
23270;SDS011;11804;51.118;17.058;2023-05-16T10:28:44;5.50;;;4.50;;
23270;SDS011;11804;51.118;17.058;2023-05-16T10:31:12;5.25;;;4.75;;
23270;SDS011;11804;51.118;17.058;2023-05-16T10:33:41;5.80;;;5.10;;
23270;SDS011;11804;51.118;17.058;2023-05-16T10:36:09;5.17;;;4.53;;
23270;SDS011;11804;51.118;17.058;2023-05-16T10:38:37;5.70;;;4.70;;
23270;SDS011;11804;51.118;17.058;2023-05-16T10:41:06;5.25;;;4.55;;
23270;SDS011;11804;51.118;17.058;2023-05-16T10:43:37;6.50;;;5.37;;
23270;SDS011;11804;51.118;17.058;2023-05-16T10:46:06;6.35;;;5.03;;
23270;SDS011;11804;51.118;17.058;2023-05-16T10:48:35;6.90;;;5.08;;
23270;SDS011;11804;51.118;17.058;2023-05-16T10:51:31;6.65;;;5.25;;
23270;SDS011;11804;51.118;17.058;2023-05-16T10:53:50;8.53;;;5.90;;
23270;SDS011;11804;51.118;17.058;2023-05-16T10:56:23;7.50;;;6.03;;
23270;SDS011;11804;51.118;17.058;2023-05-16T10:58:53;8.98;;;6.65;;
23270;SDS011;11804;51.118;17.058;2023-05-16T11:01:35;10.25;;;7.05;;
23270;SDS011;11804;51.118;17.058;2023-05-16T11:04:04;12.20;;;6.08;;
23270;SDS011;11804;51.118;17.058;2023-05-16T11:17:13;10.82;;;6.40;;
23270;SDS011;11804;51.118;17.058;2023-05-16T11:19:55;9.50;;;7.25;;
23270;SDS011;11804;51.118;17.058;2023-05-16T11:22:29;10.20;;;7.67;;
23270;SDS011;11804;51.118;17.058;2023-05-16T11:25:02;11.03;;;7.37;;
23270;SDS011;11804;51.118;17.058;2023-05-16T11:27:32;15.32;;;7.47;;
23270;SDS011;11804;51.118;17.058;2023-05-16T11:30:16;10.60;;;7.47;;
23270;SDS011;11804;51.118;17.058;2023-05-16T11:32:46;15.10;;;8.83;;
23270;SDS011;11804;51.118;17.058;2023-05-16T11:35:15;11.05;;;8.15;;
23270;SDS011;11804;51.118;17.058;2023-05-16T11:37:44;15.72;;;9.20;;
23270;SDS011;11804;51.118;17.058;2023-05-16T11:40:13;13.78;;;8.95;;
23270;SDS011;11804;51.118;17.058;2023-05-16T11:42:42;10.82;;;7.78;;
23270;SDS011;11804;51.118;17.058;2023-05-16T11:45:18;11.25;;;8.15;;
23270;SDS011;11804;51.118;17.058;2023-05-16T11:47:49;10.63;;;8.28;;
23270;SDS011;11804;51.118;17.058;2023-05-16T11:50:18;11.33;;;9.18;;
23270;SDS011;11804;51.118;17.058;2023-05-16T11:52:48;13.75;;;8.85;;
23270;SDS011;11804;51.118;17.058;2023-05-16T11:55:21;12.90;;;8.58;;
23270;SDS011;11804;51.118;17.058;2023-05-16T11:57:51;11.08;;;7.45;;
23270;SDS011;11804;51.118;17.058;2023-05-16T12:00:20;12.35;;;8.30;;
23270;SDS011;11804;51.118;17.058;2023-05-16T12:03:01;11.22;;;7.80;;
23270;SDS011;11804;51.118;17.058;2023-05-16T12:05:30;10.65;;;7.70;;
23270;SDS011;11804;51.118;17.058;2023-05-16T12:07:58;14.35;;;8.18;;
23270;SDS011;11804;51.118;17.058;2023-05-16T12:10:25;11.50;;;8.03;;
23270;SDS011;11804;51.118;17.058;2023-05-16T12:12:53;10.58;;;8.05;;
23270;SDS011;11804;51.118;17.058;2023-05-16T12:15:21;12.18;;;8.63;;
23270;SDS011;11804;51.118;17.058;2023-05-16T12:17:49;10.00;;;7.83;;
23270;SDS011;11804;51.118;17.058;2023-05-16T12:20:17;11.55;;;7.95;;
23270;SDS011;11804;51.118;17.058;2023-05-16T12:22:45;11.00;;;8.50;;
23270;SDS011;11804;51.118;17.058;2023-05-16T12:27:52;12.65;;;8.80;;
23270;SDS011;11804;51.118;17.058;2023-05-16T12:30:21;12.98;;;8.78;;
23270;SDS011;11804;51.118;17.058;2023-05-16T12:33:00;14.28;;;9.20;;
23270;SDS011;11804;51.118;17.058;2023-05-16T12:35:31;12.98;;;9.45;;
23270;SDS011;11804;51.118;17.058;2023-05-16T12:38:04;14.58;;;9.33;;
23270;SDS011;11804;51.118;17.058;2023-05-16T12:40:35;13.22;;;9.23;;
23270;SDS011;11804;51.118;17.058;2023-05-16T12:43:04;13.85;;;8.95;;
23270;SDS011;11804;51.118;17.058;2023-05-16T12:45:42;13.18;;;9.20;;
23270;SDS011;11804;51.118;17.058;2023-05-16T12:48:22;11.20;;;8.45;;
23270;SDS011;11804;51.118;17.058;2023-05-16T12:50:51;15.03;;;9.28;;
23270;SDS011;11804;51.118;17.058;2023-05-16T12:53:18;12.23;;;8.65;;
23270;SDS011;11804;51.118;17.058;2023-05-16T12:55:46;13.05;;;8.85;;
23270;SDS011;11804;51.118;17.058;2023-05-16T12:58:13;13.62;;;9.60;;
23270;SDS011;11804;51.118;17.058;2023-05-16T13:00:43;12.68;;;8.53;;
23270;SDS011;11804;51.118;17.058;2023-05-16T13:03:10;12.68;;;8.40;;
23270;SDS011;11804;51.118;17.058;2023-05-16T13:05:38;11.30;;;7.90;;
23270;SDS011;11804;51.118;17.058;2023-05-16T13:08:05;13.15;;;8.55;;
23270;SDS011;11804;51.118;17.058;2023-05-16T13:10:33;13.78;;;8.58;;
23270;SDS011;11804;51.118;17.058;2023-05-16T13:13:01;15.80;;;9.38;;
23270;SDS011;11804;51.118;17.058;2023-05-16T13:15:29;12.43;;;8.65;;
23270;SDS011;11804;51.118;17.058;2023-05-16T13:17:57;14.03;;;8.40;;
23270;SDS011;11804;51.118;17.058;2023-05-16T13:20:24;12.15;;;9.00;;
23270;SDS011;11804;51.118;17.058;2023-05-16T13:22:52;14.05;;;9.68;;
23270;SDS011;11804;51.118;17.058;2023-05-16T13:25:20;15.88;;;9.73;;
23270;SDS011;11804;51.118;17.058;2023-05-16T13:27:48;14.43;;;9.38;;
23270;SDS011;11804;51.118;17.058;2023-05-16T13:30:16;18.07;;;10.10;;
23270;SDS011;11804;51.118;17.058;2023-05-16T13:32:43;13.88;;;8.93;;
23270;SDS011;11804;51.118;17.058;2023-05-16T13:35:12;13.85;;;9.38;;
23270;SDS011;11804;51.118;17.058;2023-05-16T13:37:40;13.03;;;8.70;;
23270;SDS011;11804;51.118;17.058;2023-05-16T13:40:08;13.22;;;9.18;;
23270;SDS011;11804;51.118;17.058;2023-05-16T13:42:36;14.28;;;9.25;;
23270;SDS011;11804;51.118;17.058;2023-05-16T13:45:04;14.50;;;9.20;;
23270;SDS011;11804;51.118;17.058;2023-05-16T13:47:33;13.65;;;9.28;;
23270;SDS011;11804;51.118;17.058;2023-05-16T13:50:01;18.10;;;10.85;;
23270;SDS011;11804;51.118;17.058;2023-05-16T13:52:30;20.40;;;10.80;;
23270;SDS011;11804;51.118;17.058;2023-05-16T13:54:58;18.25;;;11.50;;
23270;SDS011;11804;51.118;17.058;2023-05-16T13:57:26;20.02;;;11.50;;
23270;SDS011;11804;51.118;17.058;2023-05-16T13:59:53;19.25;;;11.70;;
23270;SDS011;11804;51.118;17.058;2023-05-16T14:02:21;22.70;;;13.78;;
23270;SDS011;11804;51.118;17.058;2023-05-16T14:04:51;22.98;;;13.50;;
23270;SDS011;11804;51.118;17.058;2023-05-16T14:07:19;22.40;;;12.33;;
23270;SDS011;11804;51.118;17.058;2023-05-16T14:09:47;16.35;;;10.50;;
23270;SDS011;11804;51.118;17.058;2023-05-16T14:12:14;19.90;;;10.90;;
23270;SDS011;11804;51.118;17.058;2023-05-16T14:14:42;19.60;;;11.45;;
23270;SDS011;11804;51.118;17.058;2023-05-16T14:17:10;19.77;;;10.95;;
23270;SDS011;11804;51.118;17.058;2023-05-16T14:19:38;20.88;;;11.63;;
23270;SDS011;11804;51.118;17.058;2023-05-16T14:22:05;18.73;;;11.57;;
23270;SDS011;11804;51.118;17.058;2023-05-16T14:24:33;17.65;;;10.75;;
23270;SDS011;11804;51.118;17.058;2023-05-16T14:27:00;18.75;;;10.82;;
23270;SDS011;11804;51.118;17.058;2023-05-16T14:29:28;22.90;;;11.60;;
23270;SDS011;11804;51.118;17.058;2023-05-16T14:31:56;21.00;;;12.03;;
23270;SDS011;11804;51.118;17.058;2023-05-16T14:34:23;21.45;;;11.30;;
23270;SDS011;11804;51.118;17.058;2023-05-16T14:36:51;22.67;;;12.05;;
23270;SDS011;11804;51.118;17.058;2023-05-16T14:39:19;19.25;;;12.05;;
23270;SDS011;11804;51.118;17.058;2023-05-16T14:41:46;20.80;;;12.03;;
23270;SDS011;11804;51.118;17.058;2023-05-16T14:44:14;20.12;;;11.35;;
23270;SDS011;11804;51.118;17.058;2023-05-16T14:46:42;21.45;;;12.40;;
23270;SDS011;11804;51.118;17.058;2023-05-16T14:49:10;19.52;;;11.85;;
23270;SDS011;11804;51.118;17.058;2023-05-16T14:51:37;21.07;;;11.25;;
23270;SDS011;11804;51.118;17.058;2023-05-16T14:54:05;18.85;;;11.45;;
23270;SDS011;11804;51.118;17.058;2023-05-16T14:56:33;20.05;;;10.28;;
23270;SDS011;11804;51.118;17.058;2023-05-16T14:59:01;19.52;;;10.50;;
23270;SDS011;11804;51.118;17.058;2023-05-16T15:01:28;18.87;;;10.65;;